Terminal Aerodrome Forecast
Issued by NWS

Home | Current Version | Previous Version | Text Only | Print | Product List | Glossary On
Versions: 1 2 3 4 5 6 7 8 9 10 11 12 13 14
000
FTUS43 KIND 130823 AAA
TAFHUF
TAF AMD
KHUF 130823Z 1308/1406 21005KT P6SM BKN080
     FM131800 21019KT P6SM SCT200
     FM132000 24016KT P6SM BKN100
     FM140200 29013G25KT P6SM BKN030
     FM140300 30013G25KT P6SM BKN035
     FM140400 30013G24KT P6SM BKN035=

USA.gov is the U.S. government's official web portal to all federal, state and local government web resources and services.